createdAt,value
2023-03-04T00:00:57.160Z,33.27
2023-03-04T00:03:24.775Z,33.73
2023-03-04T00:05:52.296Z,27.37
2023-03-04T00:08:19.855Z,31.40
2023-03-04T00:10:47.425Z,29.63
2023-03-04T00:13:15.070Z,29.93
2023-03-04T00:15:42.603Z,34.07
2023-03-04T00:18:10.167Z,30.60
2023-03-04T00:20:37.648Z,23.93
2023-03-04T00:23:05.372Z,29.37
2023-03-04T00:25:33.553Z,28.60
2023-03-04T00:28:01.308Z,27.67
2023-03-04T00:30:28.863Z,29.17
2023-03-04T00:32:56.386Z,29.90
2023-03-04T00:35:24.794Z,34.53
2023-03-04T00:37:54.681Z,27.53
2023-03-04T00:40:22.216Z,26.67
2023-03-04T00:42:49.722Z,26.07
2023-03-04T00:45:17.369Z,26.93
2023-03-04T00:47:44.870Z,24.03
2023-03-04T00:50:12.428Z,25.53
2023-03-04T00:52:39.958Z,27.53
2023-03-04T00:55:08.720Z,24.37
2023-03-04T00:57:36.266Z,28.73
2023-03-04T01:00:05.111Z,27.73
2023-03-04T01:02:32.589Z,24.13
2023-03-04T01:05:00.133Z,25.80
2023-03-04T01:07:27.670Z,24.50
2023-03-04T01:09:55.323Z,27.63
2023-03-04T01:12:22.825Z,27.60
2023-03-04T01:14:50.355Z,20.83
2023-03-04T01:17:17.888Z,23.67
2023-03-04T01:19:45.487Z,23.77
2023-03-04T01:22:15.047Z,22.63
2023-03-04T01:24:43.364Z,22.83
2023-03-04T01:27:11.352Z,23.67
2023-03-04T01:29:38.962Z,21.13
2023-03-04T01:32:06.504Z,27.07
2023-03-04T01:34:34.283Z,28.70
2023-03-04T01:37:01.949Z,22.33
2023-03-04T01:39:29.531Z,26.53
2023-03-04T01:41:57.161Z,21.10
2023-03-04T01:44:25.419Z,26.17
2023-03-04T01:46:55.585Z,26.07
2023-03-04T01:49:25.416Z,21.37
2023-03-04T01:51:54.640Z,23.60
2023-03-04T01:54:22.997Z,24.93
2023-03-04T01:56:52.580Z,24.20
2023-03-04T01:59:23.601Z,23.80
2023-03-04T02:01:59.067Z,21.40
2023-03-04T02:04:31.156Z,23.53
2023-03-04T02:07:01.163Z,27.27
2023-03-04T02:09:30.600Z,24.37
2023-03-04T02:11:58.660Z,20.90
2023-03-04T02:14:26.389Z,22.37
2023-03-04T02:16:53.977Z,20.43
2023-03-04T02:19:53.687Z,24.97
2023-03-04T02:22:21.222Z,22.50
2023-03-04T02:25:06.425Z,25.57
2023-03-04T02:27:34.248Z,23.03
2023-03-04T02:30:02.001Z,22.73
2023-03-04T02:32:29.577Z,31.07
2023-03-04T02:34:57.359Z,23.33
2023-03-04T02:37:25.077Z,23.30
2023-03-04T02:39:54.734Z,21.37
2023-03-04T02:42:22.255Z,23.83
2023-03-04T02:44:50.384Z,25.23
2023-03-04T02:47:20.267Z,25.33
2023-03-04T02:49:49.488Z,23.83
2023-03-04T02:52:23.964Z,29.90
2023-03-04T02:54:51.903Z,23.43
2023-03-04T02:57:20.086Z,26.23
2023-03-04T02:59:52.574Z,27.90
2023-03-04T03:02:23.507Z,24.70
2023-03-04T03:04:52.155Z,22.27
2023-03-04T03:07:21.520Z,27.20
2023-03-04T03:09:49.870Z,25.20
2023-03-04T03:12:18.738Z,23.17
2023-03-04T03:14:46.236Z,28.17
2023-03-04T03:17:17.228Z,26.43
2023-03-04T03:19:44.908Z,31.47
2023-03-04T03:22:13.039Z,22.40
2023-03-04T03:24:41.335Z,27.13
2023-03-04T03:27:08.993Z,23.73
2023-03-04T03:29:36.598Z,28.50
2023-03-04T03:32:08.099Z,24.70
2023-03-04T03:34:35.690Z,25.40
2023-03-04T03:37:03.311Z,27.07
2023-03-04T03:39:30.839Z,25.27
2023-03-04T03:41:58.365Z,30.53
2023-03-04T03:44:25.963Z,27.10
2023-03-04T03:46:53.531Z,28.90
2023-03-04T03:49:21.557Z,23.80
2023-03-04T03:51:49.328Z,27.80
2023-03-04T03:54:16.830Z,29.37
2023-03-04T03:56:44.438Z,32.80
2023-03-04T03:59:12.006Z,31.37
2023-03-04T04:01:39.550Z,27.30
2023-03-04T04:04:07.128Z,34.63
2023-03-04T04:06:34.623Z,24.97
2023-03-04T04:09:02.133Z,32.10
2023-03-04T04:11:29.653Z,30.83
2023-03-04T04:13:57.189Z,29.77
2023-03-04T04:16:25.028Z,27.53
2023-03-04T04:18:52.601Z,27.87
2023-03-04T04:21:20.220Z,31.47
2023-03-04T04:23:47.780Z,32.40
2023-03-04T04:26:15.317Z,25.43
2023-03-04T04:28:42.835Z,27.83
2023-03-04T04:31:10.387Z,29.07
2023-03-04T04:33:38.278Z,28.40
2023-03-04T04:36:06.178Z,32.00
2023-03-04T04:38:33.673Z,30.93
2023-03-04T04:41:01.313Z,33.83
2023-03-04T04:43:28.807Z,35.00
2023-03-04T04:45:58.980Z,32.33
2023-03-04T04:48:26.585Z,31.97
2023-03-04T04:50:56.359Z,29.13
2023-03-04T04:53:23.946Z,30.77
2023-03-04T04:55:51.451Z,36.47
2023-03-04T04:58:18.925Z,33.87
2023-03-04T05:00:46.424Z,33.47
2023-03-04T05:03:13.921Z,30.93
2023-03-04T05:05:42.173Z,34.63
2023-03-04T05:08:09.641Z,32.43
2023-03-04T05:10:37.140Z,26.53
2023-03-04T05:13:04.612Z,32.70
2023-03-04T05:15:32.135Z,35.13
2023-03-04T05:17:59.637Z,33.57
2023-03-04T05:20:27.816Z,32.57
2023-03-04T05:22:55.381Z,30.60
2023-03-04T05:25:22.887Z,32.47
2023-03-04T05:27:50.380Z,33.03
2023-03-04T05:30:18.353Z,37.80
2023-03-04T05:32:45.901Z,32.70
2023-03-04T05:35:13.448Z,32.73
2023-03-04T05:37:41.089Z,28.93
2023-03-04T05:40:09.837Z,28.67
2023-03-04T05:42:37.345Z,34.40
2023-03-04T05:45:06.901Z,35.93
2023-03-04T05:47:34.526Z,28.80
2023-03-04T05:50:02.025Z,37.90
2023-03-04T05:52:29.617Z,31.63
2023-03-04T05:54:57.122Z,32.33
2023-03-04T05:57:24.790Z,34.40
2023-03-04T05:59:52.282Z,33.80
2023-03-04T06:02:19.879Z,34.07
2023-03-04T06:04:47.696Z,37.10
2023-03-04T06:07:15.233Z,38.50
2023-03-04T06:09:45.071Z,36.87
2023-03-04T06:12:13.074Z,36.03
2023-03-04T06:14:40.553Z,32.63
2023-03-04T06:17:08.170Z,37.27
2023-03-04T06:19:37.907Z,40.10
2023-03-04T06:22:05.770Z,37.83
2023-03-04T06:24:33.306Z,30.57
2023-03-04T06:27:00.904Z,34.87
2023-03-04T06:29:28.500Z,33.80
2023-03-04T06:31:56.086Z,35.50
2023-03-04T06:34:23.710Z,42.73
2023-03-04T06:36:51.395Z,39.13
2023-03-04T06:39:19.359Z,34.90
2023-03-04T06:41:46.857Z,36.27
2023-03-04T06:44:14.444Z,35.17
2023-03-04T06:46:42.633Z,42.17
2023-03-04T06:49:10.319Z,37.97
2023-03-04T06:51:37.944Z,34.63
2023-03-04T06:54:05.995Z,36.27
2023-03-04T06:56:33.627Z,37.10
2023-03-04T06:59:01.163Z,36.43
2023-03-04T07:01:29.739Z,43.60
2023-03-04T07:03:58.080Z,34.53
2023-03-04T07:06:28.215Z,35.20
2023-03-04T07:08:56.863Z,38.87
2023-03-04T07:11:25.033Z,36.07
2023-03-04T07:13:53.271Z,39.87
2023-03-04T07:16:23.511Z,40.43
2023-03-04T07:18:51.174Z,39.20
2023-03-04T07:21:19.122Z,35.47
2023-03-04T07:23:46.856Z,35.93
2023-03-04T07:26:14.862Z,35.83
2023-03-04T07:28:42.792Z,32.17
2023-03-04T07:31:19.024Z,29.50
2023-03-04T07:33:46.708Z,31.87
2023-03-04T07:36:16.882Z,36.03
2023-03-04T07:38:46.780Z,33.83
2023-03-04T07:41:14.936Z,34.23
2023-03-04T07:43:42.577Z,33.20
2023-03-04T07:46:11.049Z,33.10
2023-03-04T07:48:38.666Z,34.57
2023-03-04T07:51:09.198Z,38.53
2023-03-04T07:53:38.695Z,37.90
2023-03-04T07:56:08.721Z,43.77
2023-03-04T07:58:36.332Z,37.33
2023-03-04T08:01:14.203Z,38.80
2023-03-04T08:03:42.223Z,31.50
2023-03-04T08:06:13.178Z,28.23
2023-03-04T08:08:40.742Z,32.47
2023-03-04T08:11:12.191Z,34.40
2023-03-04T08:13:39.989Z,31.73
2023-03-04T08:16:08.106Z,32.77
2023-03-04T08:18:35.744Z,33.40
2023-03-04T08:21:07.836Z,30.70
2023-03-04T08:23:35.486Z,28.90
2023-03-04T08:26:12.229Z,32.43
2023-03-04T08:28:40.028Z,30.83
2023-03-04T08:31:07.671Z,31.27
2023-03-04T08:33:35.462Z,26.10
2023-03-04T08:36:03.170Z,33.03
2023-03-04T08:38:31.852Z,28.50
2023-03-04T08:40:59.471Z,29.07
2023-03-04T08:43:27.229Z,32.67
2023-03-04T08:45:54.920Z,31.90
2023-03-04T08:48:23.195Z,32.87
2023-03-04T08:50:51.196Z,36.30
2023-03-04T08:53:20.623Z,30.50
2023-03-04T08:55:49.083Z,30.47
2023-03-04T08:58:16.582Z,31.80
2023-03-04T09:00:48.335Z,31.90
2023-03-04T09:03:19.391Z,31.03
2023-03-04T09:05:48.408Z,28.43
2023-03-04T09:08:16.980Z,26.97
2023-03-04T09:10:46.525Z,24.03
2023-03-04T09:13:17.373Z,28.80
2023-03-04T09:15:50.674Z,26.10
2023-03-04T09:18:20.718Z,23.55
2023-03-04T09:20:48.539Z,26.83
2023-03-04T09:23:16.494Z,28.83
2023-03-04T09:25:46.325Z,31.07
2023-03-04T09:28:15.468Z,27.83
2023-03-04T09:30:43.649Z,36.37
2023-03-04T09:33:11.674Z,35.33
2023-03-04T09:35:39.325Z,28.27
2023-03-04T09:38:07.142Z,29.80
2023-03-04T09:40:46.539Z,35.27
2023-03-04T09:43:29.958Z,33.53
2023-03-04T09:46:03.210Z,27.67
2023-03-04T09:48:47.617Z,28.13
2023-03-04T09:54:18.408Z,29.50
2023-03-04T09:56:45.952Z,29.87
2023-03-04T09:59:31.422Z,30.87
2023-03-04T10:02:03.586Z,36.53
2023-03-04T10:04:41.684Z,28.37
2023-03-04T10:07:25.953Z,29.93
2023-03-04T10:10:04.542Z,34.20
2023-03-04T10:12:37.809Z,32.40
2023-03-04T10:15:18.851Z,36.80
2023-03-04T10:17:53.654Z,35.33
2023-03-04T10:20:47.658Z,33.60
2023-03-04T10:23:22.061Z,32.55
2023-03-04T10:25:54.038Z,36.87
2023-03-04T10:28:27.990Z,37.27
2023-03-04T10:31:36.536Z,36.05
2023-03-04T10:34:05.665Z,37.37
2023-03-04T10:36:55.543Z,41.73
2023-03-04T10:39:34.579Z,43.53
2023-03-04T10:42:14.399Z,38.73
2023-03-04T10:44:59.392Z,39.37
2023-03-04T10:47:32.946Z,40.47
2023-03-04T10:50:05.333Z,42.22
2023-03-04T10:52:41.099Z,45.53
2023-03-04T10:55:41.077Z,41.10
2023-03-04T10:58:18.132Z,47.57
2023-03-04T11:01:06.012Z,48.53
2023-03-04T11:03:36.821Z,42.60
2023-03-04T11:06:12.004Z,44.33
2023-03-04T11:08:41.163Z,44.87
2023-03-04T11:11:37.662Z,36.07
2023-03-04T11:14:29.371Z,39.40
2023-03-04T11:17:03.464Z,37.63
2023-03-04T11:22:06.267Z,43.47
2023-03-04T11:24:37.742Z,37.90
2023-03-04T11:27:20.926Z,45.57
2023-03-04T11:30:16.497Z,44.20
2023-03-04T11:32:48.006Z,35.33
2023-03-04T11:35:28.448Z,38.63
2023-03-04T11:38:22.523Z,43.27
2023-03-04T11:40:57.032Z,47.22
2023-03-04T11:43:37.373Z,40.80
2023-03-04T11:46:42.450Z,44.07
2023-03-04T11:49:34.156Z,42.93
2023-03-04T11:52:18.628Z,40.20
2023-03-04T11:55:18.130Z,48.67
2023-03-04T11:58:12.498Z,46.67
2023-03-04T12:01:25.846Z,49.40
2023-03-04T12:04:23.693Z,48.80
2023-03-04T12:07:47.425Z,49.13
2023-03-04T12:10:50.953Z,47.17
2023-03-04T12:13:55.644Z,49.57
2023-03-04T12:16:28.238Z,44.80
2023-03-04T12:19:23.192Z,52.40
2023-03-04T12:22:24.834Z,52.57
2023-03-04T12:25:19.491Z,47.30
2023-03-04T12:28:01.024Z,37.57
2023-03-04T12:31:12.744Z,45.43
2023-03-04T12:34:07.978Z,36.30
2023-03-04T12:37:25.675Z,42.63
2023-03-04T12:40:17.243Z,37.27
2023-03-04T12:43:25.012Z,36.07
2023-03-04T12:46:24.699Z,31.13
2023-03-04T12:49:19.471Z,30.10
2023-03-04T12:52:23.370Z,30.23
2023-03-04T12:54:57.866Z,27.30
2023-03-04T12:57:31.582Z,34.40
2023-03-04T13:00:38.850Z,31.17
2023-03-04T13:03:33.654Z,27.73
2023-03-04T13:06:16.588Z,23.70
2023-03-04T13:09:37.566Z,24.07
2023-03-04T13:12:25.470Z,27.60
2023-03-04T13:15:07.685Z,27.47
2023-03-04T13:17:59.140Z,28.80
2023-03-04T13:20:41.462Z,25.23
2023-03-04T13:23:08.829Z,28.73
2023-03-04T13:26:08.285Z,26.37
2023-03-04T13:28:37.237Z,25.97
2023-03-04T13:31:09.520Z,20.13
2023-03-04T13:33:36.866Z,23.77
2023-03-04T13:36:25.551Z,23.40
2023-03-04T13:39:27.742Z,27.00
2023-03-04T13:41:56.884Z,30.23
2023-03-04T13:44:44.021Z,28.10
2023-03-04T13:47:20.071Z,26.90
2023-03-04T13:49:47.714Z,32.53
2023-03-04T13:52:40.388Z,26.20
2023-03-04T13:55:37.511Z,25.03
2023-03-04T13:58:23.029Z,24.20
2023-03-04T14:00:55.270Z,25.73
2023-03-04T14:03:30.363Z,35.97
2023-03-04T14:06:20.994Z,27.47
2023-03-04T14:08:50.248Z,29.47
2023-03-04T14:11:41.736Z,33.47
2023-03-04T14:14:21.234Z,34.40
2023-03-04T14:17:00.017Z,36.57
2023-03-04T14:19:48.443Z,33.20
2023-03-04T14:22:24.536Z,36.10
2023-03-04T14:25:13.548Z,31.20
2023-03-04T14:27:41.584Z,38.20
2023-03-04T14:30:39.532Z,32.23
2023-03-04T14:33:19.682Z,40.20
2023-03-04T14:35:50.803Z,30.87
2023-03-04T14:38:38.072Z,34.13
2023-03-04T14:41:10.375Z,29.60
2023-03-04T14:44:01.467Z,42.27
2023-03-04T14:46:43.058Z,53.27
2023-03-04T14:49:14.436Z,48.90
2023-03-04T14:51:52.189Z,33.60
2023-03-04T14:54:41.475Z,32.33
2023-03-04T14:57:26.446Z,31.63
2023-03-04T14:59:54.778Z,33.63
2023-03-04T15:02:33.580Z,32.87
2023-03-04T15:05:31.911Z,38.70
2023-03-04T15:08:02.655Z,36.40
2023-03-04T15:10:37.959Z,29.43
2023-03-04T15:13:09.131Z,31.47
2023-03-04T15:15:46.316Z,30.60
2023-03-04T15:18:26.232Z,38.43
2023-03-04T15:21:04.576Z,33.87
2023-03-04T15:23:33.776Z,34.23
2023-03-04T15:26:05.705Z,28.57
2023-03-04T15:28:39.130Z,34.97
2023-03-04T15:31:15.474Z,38.33
2023-03-04T15:33:43.048Z,35.37
2023-03-04T15:36:18.105Z,28.57
2023-03-04T15:38:53.001Z,27.77
2023-03-04T15:41:27.098Z,28.20
2023-03-04T15:46:22.440Z,30.20
2023-03-04T15:48:50.098Z,32.23
2023-03-04T15:51:23.057Z,28.87
2023-03-04T15:53:58.902Z,29.30
2023-03-04T15:56:33.005Z,33.00
2023-03-04T16:01:38.708Z,33.10
2023-03-04T16:04:06.418Z,25.37
2023-03-04T16:06:34.017Z,30.17
2023-03-04T16:09:01.543Z,29.27
2023-03-04T16:11:33.928Z,34.70
2023-03-04T16:14:01.519Z,28.73
2023-03-04T16:16:29.587Z,29.73
2023-03-04T16:18:57.109Z,34.37
2023-03-04T16:21:24.871Z,26.97
2023-03-04T16:23:54.332Z,31.03
2023-03-04T16:26:25.778Z,31.47
2023-03-04T16:28:54.225Z,29.80
2023-03-04T16:31:22.631Z,31.43
2023-03-04T16:33:50.201Z,30.60
2023-03-04T16:36:25.669Z,35.87
2023-03-04T16:38:56.253Z,27.53
2023-03-04T16:41:28.301Z,33.17
2023-03-04T16:43:58.731Z,26.80
2023-03-04T16:46:26.275Z,30.70
2023-03-04T16:48:53.985Z,25.33
2023-03-04T16:51:23.304Z,24.43
2023-03-04T16:53:59.991Z,35.53
2023-03-04T16:56:28.096Z,37.53
2023-03-04T16:58:55.625Z,45.00
2023-03-04T17:01:28.974Z,35.10
2023-03-04T17:03:57.066Z,29.25
2023-03-04T17:06:24.956Z,27.53
2023-03-04T17:08:52.444Z,30.80
2023-03-04T17:11:23.456Z,36.40
2023-03-04T17:13:51.525Z,32.33
2023-03-04T17:16:19.287Z,32.27
2023-03-04T17:18:46.932Z,34.37
2023-03-04T17:21:18.870Z,31.63
2023-03-04T17:23:46.456Z,32.93
2023-03-04T17:26:15.483Z,31.13
2023-03-04T17:28:43.221Z,36.07
2023-03-04T17:31:14.010Z,37.20
2023-03-04T17:33:43.764Z,29.87
2023-03-04T17:36:12.623Z,29.77
2023-03-04T17:38:40.574Z,30.03
2023-03-04T17:41:15.802Z,31.87
2023-03-04T17:43:49.535Z,31.37
2023-03-04T17:46:21.926Z,34.13
2023-03-04T17:48:51.699Z,30.93
2023-03-04T17:51:19.200Z,30.30
2023-03-04T17:53:46.701Z,31.23
2023-03-04T17:56:14.189Z,29.53
2023-03-04T17:58:41.969Z,33.53
2023-03-04T18:01:19.364Z,29.43
2023-03-04T18:03:47.497Z,29.50
2023-03-04T18:06:15.230Z,27.03
2023-03-04T18:08:43.164Z,32.27
2023-03-04T18:11:11.768Z,28.53
2023-03-04T18:13:43.710Z,29.73
2023-03-04T18:16:15.660Z,27.77
2023-03-04T18:18:43.654Z,27.77
2023-03-04T18:21:13.479Z,27.30
2023-03-04T18:23:40.969Z,28.43
2023-03-04T18:26:08.498Z,29.13
2023-03-04T18:28:36.136Z,25.33
2023-03-04T18:31:04.165Z,27.73
2023-03-04T18:33:33.426Z,28.30
2023-03-04T18:36:05.520Z,23.80
2023-03-04T18:38:33.465Z,26.07
2023-03-04T18:41:06.494Z,29.60
2023-03-04T18:43:35.059Z,33.17
2023-03-04T18:46:21.156Z,25.80
2023-03-04T18:48:53.361Z,28.07
2023-03-04T18:51:21.382Z,27.80
2023-03-04T18:53:48.864Z,36.00
2023-03-04T18:56:23.317Z,35.63
2023-03-04T18:58:51.568Z,55.17
2023-03-04T19:01:21.939Z,34.33
2023-03-04T19:03:50.521Z,31.40
2023-03-04T19:06:18.573Z,30.37
2023-03-04T19:08:46.136Z,28.37
2023-03-04T19:11:14.618Z,32.47
2023-03-04T19:13:42.129Z,26.57
2023-03-04T19:16:09.636Z,25.30
2023-03-04T19:18:37.241Z,31.33
2023-03-04T19:21:05.622Z,29.60
2023-03-04T19:23:33.262Z,27.90
2023-03-04T19:26:01.075Z,31.60
2023-03-04T19:28:28.550Z,29.50
2023-03-04T19:30:59.153Z,24.70
2023-03-04T19:33:26.922Z,26.80
2023-03-04T19:35:54.489Z,27.00
2023-03-04T19:38:22.337Z,26.10
2023-03-04T19:40:49.846Z,29.97
2023-03-04T19:43:17.347Z,29.33
2023-03-04T19:45:56.352Z,32.10
2023-03-04T19:48:24.362Z,24.33
2023-03-04T19:50:51.953Z,29.43
2023-03-04T19:53:19.530Z,27.90
2023-03-04T19:55:49.222Z,30.53
2023-03-04T19:58:16.863Z,35.93
2023-03-04T20:00:45.279Z,27.20
2023-03-04T20:03:13.418Z,23.23
2023-03-04T20:05:41.149Z,24.87
2023-03-04T20:08:08.645Z,24.97
2023-03-04T20:10:37.542Z,26.13
2023-03-04T20:13:07.688Z,33.27
2023-03-04T20:15:35.669Z,27.23
2023-03-04T20:18:04.018Z,32.03
2023-03-04T20:20:31.868Z,24.33
2023-03-04T20:22:59.422Z,29.00
2023-03-04T20:25:28.955Z,27.70
2023-03-04T20:27:57.405Z,27.83
2023-03-04T20:30:25.160Z,27.93
2023-03-04T20:32:52.665Z,27.80
2023-03-04T20:35:20.569Z,28.60
2023-03-04T20:37:48.084Z,38.27
2023-03-04T20:40:15.595Z,29.87
2023-03-04T20:42:43.213Z,28.97
2023-03-04T20:45:11.430Z,24.57
2023-03-04T20:47:39.740Z,25.53
2023-03-04T20:50:08.047Z,26.20
2023-03-04T20:52:35.517Z,21.13
2023-03-04T20:55:03.076Z,20.13
2023-03-04T20:57:30.597Z,25.33
2023-03-04T20:59:58.409Z,24.03
2023-03-04T21:02:26.347Z,22.13
2023-03-04T21:04:55.452Z,22.00
2023-03-04T21:07:24.265Z,27.47
2023-03-04T21:09:51.756Z,27.60
2023-03-04T21:12:19.766Z,24.47
2023-03-04T21:14:47.254Z,29.60
2023-03-04T21:17:15.033Z,29.80
2023-03-04T21:19:43.456Z,25.50
2023-03-04T21:22:17.506Z,34.17
2023-03-04T21:27:14.913Z,31.87
2023-03-04T21:29:42.409Z,35.27
2023-03-04T21:32:26.795Z,39.83
2023-03-04T21:34:56.110Z,45.90
2023-03-04T21:37:25.396Z,34.87
2023-03-04T21:39:54.238Z,30.07
2023-03-04T21:42:22.410Z,31.23
2023-03-04T21:44:51.459Z,26.53
2023-03-04T21:47:21.055Z,25.73
2023-03-04T21:49:48.647Z,27.07
2023-03-04T21:52:18.208Z,22.77
2023-03-04T21:54:45.852Z,22.33
2023-03-04T21:57:14.246Z,25.10
2023-03-04T21:59:42.177Z,29.17
2023-03-04T22:02:16.823Z,22.50
2023-03-04T22:04:44.610Z,24.53
2023-03-04T22:07:12.933Z,22.30
2023-03-04T22:09:40.497Z,23.07
2023-03-04T22:12:08.196Z,19.37
2023-03-04T22:14:35.704Z,19.80
2023-03-04T22:17:03.370Z,19.63
2023-03-04T22:19:32.500Z,18.17
2023-03-04T22:22:00.234Z,17.17
2023-03-04T22:24:28.271Z,18.67
2023-03-04T22:26:57.528Z,20.90
2023-03-04T22:29:25.063Z,21.00
2023-03-04T22:31:52.675Z,19.93
2023-03-04T22:34:20.385Z,18.10
2023-03-04T22:36:49.140Z,22.33
2023-03-04T22:39:22.794Z,19.40
2023-03-04T22:41:50.318Z,17.92
2023-03-04T22:44:18.143Z,18.23
2023-03-04T22:46:45.635Z,20.10
2023-03-04T22:49:14.558Z,18.67
2023-03-04T22:51:44.285Z,23.43
2023-03-04T22:54:15.136Z,18.23
2023-03-04T22:56:42.832Z,18.50
2023-03-04T22:59:10.443Z,17.60
2023-03-04T23:01:37.964Z,22.83
2023-03-04T23:04:05.661Z,19.23
2023-03-04T23:06:33.314Z,21.77
2023-03-04T23:09:00.840Z,27.10
2023-03-04T23:11:35.464Z,21.50
2023-03-04T23:14:06.813Z,18.20
2023-03-04T23:16:43.043Z,20.87
2023-03-04T23:19:16.632Z,17.73
2023-03-04T23:21:44.596Z,23.23
2023-03-04T23:24:13.460Z,16.67
2023-03-04T23:26:43.019Z,18.00
2023-03-04T23:29:14.104Z,25.47
2023-03-04T23:31:42.559Z,17.60
2023-03-04T23:34:11.188Z,27.07
2023-03-04T23:36:39.226Z,18.57
2023-03-04T23:39:07.508Z,17.87
2023-03-04T23:41:35.894Z,21.97
2023-03-04T23:44:04.574Z,20.23
2023-03-04T23:46:32.345Z,19.73
2023-03-04T23:48:59.892Z,22.83
2023-03-04T23:51:29.346Z,22.27
2023-03-04T23:53:57.872Z,20.33
2023-03-04T23:56:31.200Z,24.27
2023-03-04T23:58:59.794Z,23.88
